sensor_id;sensor_type;location;lat;lon;timestamp;temperature;humidity
44894;DHT22;30625;52.206;21.030;2024-01-11T00:01:10;-5.00;99.90
44894;DHT22;30625;52.206;21.030;2024-01-11T00:03:36;-5.00;99.90
44894;DHT22;30625;52.206;21.030;2024-01-11T00:06:03;-5.00;99.90
44894;DHT22;30625;52.206;21.030;2024-01-11T00:08:29;-5.00;99.90
44894;DHT22;30625;52.206;21.030;2024-01-11T00:10:55;-5.00;99.90
44894;DHT22;30625;52.206;21.030;2024-01-11T00:13:22;-4.90;99.90
44894;DHT22;30625;52.206;21.030;2024-01-11T00:15:47;-5.00;99.90
44894;DHT22;30625;52.206;21.030;2024-01-11T00:18:13;-5.00;99.90
44894;DHT22;30625;52.206;21.030;2024-01-11T00:20:40;-4.90;99.90
44894;DHT22;30625;52.206;21.030;2024-01-11T00:23:06;-4.90;99.90
44894;DHT22;30625;52.206;21.030;2024-01-11T00:25:31;-4.90;99.90
44894;DHT22;30625;52.206;21.030;2024-01-11T00:28:01;-4.90;99.90
44894;DHT22;30625;52.206;21.030;2024-01-11T00:30:30;-4.90;99.90
44894;DHT22;30625;52.206;21.030;2024-01-11T00:32:55;-4.90;99.90
44894;DHT22;30625;52.206;21.030;2024-01-11T00:35:21;-4.70;99.90
44894;DHT22;30625;52.206;21.030;2024-01-11T00:37:47;-4.90;99.90
44894;DHT22;30625;52.206;21.030;2024-01-11T00:40:13;-4.90;99.90
44894;DHT22;30625;52.206;21.030;2024-01-11T00:42:39;-4.90;99.90
44894;DHT22;30625;52.206;21.030;2024-01-11T00:45:05;-4.90;99.90
44894;DHT22;30625;52.206;21.030;2024-01-11T00:47:32;-4.90;99.90
44894;DHT22;30625;52.206;21.030;2024-01-11T00:49:57;-4.90;99.90
44894;DHT22;30625;52.206;21.030;2024-01-11T00:52:23;-4.90;99.90
44894;DHT22;30625;52.206;21.030;2024-01-11T00:54:50;-4.90;99.90
44894;DHT22;30625;52.206;21.030;2024-01-11T00:57:15;-4.80;99.90
44894;DHT22;30625;52.206;21.030;2024-01-11T00:59:42;-4.90;99.90
44894;DHT22;30625;52.206;21.030;2024-01-11T01:02:08;-4.80;99.90
44894;DHT22;30625;52.206;21.030;2024-01-11T01:04:37;-4.90;99.90
44894;DHT22;30625;52.206;21.030;2024-01-11T01:07:02;-4.80;99.90
44894;DHT22;30625;52.206;21.030;2024-01-11T01:09:28;-4.90;99.90
44894;DHT22;30625;52.206;21.030;2024-01-11T01:11:54;-4.80;99.90
44894;DHT22;30625;52.206;21.030;2024-01-11T01:14:19;-4.90;99.90
44894;DHT22;30625;52.206;21.030;2024-01-11T01:16:45;-4.90;99.90
44894;DHT22;30625;52.206;21.030;2024-01-11T01:19:10;-4.80;99.90
44894;DHT22;30625;52.206;21.030;2024-01-11T01:21:36;-4.80;99.90
44894;DHT22;30625;52.206;21.030;2024-01-11T01:24:01;-4.80;99.90
44894;DHT22;30625;52.206;21.030;2024-01-11T01:26:27;-4.90;99.90
44894;DHT22;30625;52.206;21.030;2024-01-11T01:28:54;-4.80;99.90
44894;DHT22;30625;52.206;21.030;2024-01-11T01:31:21;-4.80;99.90
44894;DHT22;30625;52.206;21.030;2024-01-11T01:33:46;-4.80;99.90
44894;DHT22;30625;52.206;21.030;2024-01-11T01:36:12;-4.80;99.90
44894;DHT22;30625;52.206;21.030;2024-01-11T01:38:37;-4.80;99.90
44894;DHT22;30625;52.206;21.030;2024-01-11T01:41:03;-4.80;99.90
44894;DHT22;30625;52.206;21.030;2024-01-11T01:43:28;-4.70;99.90
44894;DHT22;30625;52.206;21.030;2024-01-11T01:45:55;-4.70;99.90
44894;DHT22;30625;52.206;21.030;2024-01-11T01:48:21;-4.70;99.90
44894;DHT22;30625;52.206;21.030;2024-01-11T01:50:47;-4.60;99.90
44894;DHT22;30625;52.206;21.030;2024-01-11T01:53:18;-4.60;99.90
44894;DHT22;30625;52.206;21.030;2024-01-11T01:55:44;-4.70;99.90
44894;DHT22;30625;52.206;21.030;2024-01-11T01:58:12;-4.70;99.90
44894;DHT22;30625;52.206;21.030;2024-01-11T02:00:37;-4.70;99.90
44894;DHT22;30625;52.206;21.030;2024-01-11T02:03:11;-4.70;99.90
44894;DHT22;30625;52.206;21.030;2024-01-11T02:05:37;-4.60;99.90
44894;DHT22;30625;52.206;21.030;2024-01-11T02:08:04;-4.60;99.90
44894;DHT22;30625;52.206;21.030;2024-01-11T02:10:33;-4.60;99.90
44894;DHT22;30625;52.206;21.030;2024-01-11T02:13:00;-4.60;99.90
44894;DHT22;30625;52.206;21.030;2024-01-11T02:15:26;-4.70;99.90
44894;DHT22;30625;52.206;21.030;2024-01-11T02:17:52;-4.70;99.90
44894;DHT22;30625;52.206;21.030;2024-01-11T02:20:19;-4.60;99.90
44894;DHT22;30625;52.206;21.030;2024-01-11T02:22:50;-4.70;99.90
44894;DHT22;30625;52.206;21.030;2024-01-11T02:25:18;-4.60;99.90
44894;DHT22;30625;52.206;21.030;2024-01-11T02:30:12;-4.70;99.90
44894;DHT22;30625;52.206;21.030;2024-01-11T02:32:37;-4.60;99.90
44894;DHT22;30625;52.206;21.030;2024-01-11T02:35:06;-4.60;99.90
44894;DHT22;30625;52.206;21.030;2024-01-11T02:37:36;-4.60;99.90
44894;DHT22;30625;52.206;21.030;2024-01-11T02:40:04;-4.60;99.90
44894;DHT22;30625;52.206;21.030;2024-01-11T02:42:30;-4.60;99.90
44894;DHT22;30625;52.206;21.030;2024-01-11T02:44:56;-4.60;99.90
44894;DHT22;30625;52.206;21.030;2024-01-11T02:47:22;-4.50;99.90
44894;DHT22;30625;52.206;21.030;2024-01-11T02:49:48;-4.50;99.90
44894;DHT22;30625;52.206;21.030;2024-01-11T02:52:13;-4.50;99.90
44894;DHT22;30625;52.206;21.030;2024-01-11T02:54:42;-4.50;99.90
44894;DHT22;30625;52.206;21.030;2024-01-11T02:57:07;-4.50;99.90
44894;DHT22;30625;52.206;21.030;2024-01-11T02:59:33;-4.60;99.90
44894;DHT22;30625;52.206;21.030;2024-01-11T03:01:59;-4.50;99.90
44894;DHT22;30625;52.206;21.030;2024-01-11T03:04:24;-4.50;99.90
44894;DHT22;30625;52.206;21.030;2024-01-11T03:06:50;-4.50;99.90
44894;DHT22;30625;52.206;21.030;2024-01-11T03:09:17;-4.50;99.90
44894;DHT22;30625;52.206;21.030;2024-01-11T03:11:44;-4.60;99.90
44894;DHT22;30625;52.206;21.030;2024-01-11T03:14:10;-4.50;99.90
44894;DHT22;30625;52.206;21.030;2024-01-11T03:16:35;-4.50;99.90
44894;DHT22;30625;52.206;21.030;2024-01-11T03:19:09;-4.40;99.90
44894;DHT22;30625;52.206;21.030;2024-01-11T03:21:34;-4.40;99.90
44894;DHT22;30625;52.206;21.030;2024-01-11T03:24:00;-4.50;99.90
44894;DHT22;30625;52.206;21.030;2024-01-11T03:26:25;-4.50;99.90
44894;DHT22;30625;52.206;21.030;2024-01-11T03:28:52;-4.50;99.90
44894;DHT22;30625;52.206;21.030;2024-01-11T03:31:19;-4.50;99.90
44894;DHT22;30625;52.206;21.030;2024-01-11T03:33:45;-4.50;99.90
44894;DHT22;30625;52.206;21.030;2024-01-11T03:36:10;-4.30;99.90
44894;DHT22;30625;52.206;21.030;2024-01-11T03:38:37;-4.40;99.90
44894;DHT22;30625;52.206;21.030;2024-01-11T03:41:09;-4.40;99.90
44894;DHT22;30625;52.206;21.030;2024-01-11T03:43:35;-4.40;99.90
44894;DHT22;30625;52.206;21.030;2024-01-11T03:46:02;-4.40;99.90
44894;DHT22;30625;52.206;21.030;2024-01-11T03:48:27;-4.50;99.90
44894;DHT22;30625;52.206;21.030;2024-01-11T03:50:53;-4.40;99.90
44894;DHT22;30625;52.206;21.030;2024-01-11T03:53:19;-4.50;99.90
44894;DHT22;30625;52.206;21.030;2024-01-11T03:55:45;-4.50;99.90
44894;DHT22;30625;52.206;21.030;2024-01-11T03:58:14;-4.50;99.90
44894;DHT22;30625;52.206;21.030;2024-01-11T04:00:41;-4.60;99.90
44894;DHT22;30625;52.206;21.030;2024-01-11T04:03:06;-4.50;99.90
44894;DHT22;30625;52.206;21.030;2024-01-11T04:05:32;-4.50;99.90
44894;DHT22;30625;52.206;21.030;2024-01-11T04:07:58;-4.50;99.90
44894;DHT22;30625;52.206;21.030;2024-01-11T04:10:23;-4.40;99.90
44894;DHT22;30625;52.206;21.030;2024-01-11T04:12:49;-4.50;99.90
44894;DHT22;30625;52.206;21.030;2024-01-11T04:15:15;-4.50;99.90
44894;DHT22;30625;52.206;21.030;2024-01-11T04:17:40;-4.50;99.90
44894;DHT22;30625;52.206;21.030;2024-01-11T04:20:07;-4.50;99.90
44894;DHT22;30625;52.206;21.030;2024-01-11T04:22:53;-4.50;99.90
44894;DHT22;30625;52.206;21.030;2024-01-11T04:25:20;-4.50;99.90
44894;DHT22;30625;52.206;21.030;2024-01-11T04:27:46;-4.40;99.90
44894;DHT22;30625;52.206;21.030;2024-01-11T04:30:12;-4.40;99.90
44894;DHT22;30625;52.206;21.030;2024-01-11T04:32:37;-4.40;99.90
44894;DHT22;30625;52.206;21.030;2024-01-11T04:35:03;-4.40;99.90
44894;DHT22;30625;52.206;21.030;2024-01-11T04:37:29;-4.40;99.90
44894;DHT22;30625;52.206;21.030;2024-01-11T04:40:01;-4.40;99.90
44894;DHT22;30625;52.206;21.030;2024-01-11T04:42:29;-4.40;99.90
44894;DHT22;30625;52.206;21.030;2024-01-11T04:44:55;-4.40;99.90
44894;DHT22;30625;52.206;21.030;2024-01-11T04:47:20;-4.30;99.90
44894;DHT22;30625;52.206;21.030;2024-01-11T04:49:46;-4.30;99.90
44894;DHT22;30625;52.206;21.030;2024-01-11T04:52:11;-4.30;99.90
44894;DHT22;30625;52.206;21.030;2024-01-11T04:54:38;-4.30;99.90
44894;DHT22;30625;52.206;21.030;2024-01-11T04:57:05;-4.40;99.90
44894;DHT22;30625;52.206;21.030;2024-01-11T04:59:30;-4.30;99.90
44894;DHT22;30625;52.206;21.030;2024-01-11T05:01:56;-4.40;99.90
44894;DHT22;30625;52.206;21.030;2024-01-11T05:04:23;-4.40;99.90
44894;DHT22;30625;52.206;21.030;2024-01-11T05:06:50;-4.40;99.90
44894;DHT22;30625;52.206;21.030;2024-01-11T05:09:16;-4.40;99.90
44894;DHT22;30625;52.206;21.030;2024-01-11T05:11:41;-4.40;99.90
44894;DHT22;30625;52.206;21.030;2024-01-11T05:14:07;-4.40;99.90
44894;DHT22;30625;52.206;21.030;2024-01-11T05:16:33;-4.40;99.90
44894;DHT22;30625;52.206;21.030;2024-01-11T05:19:01;-4.40;99.90
44894;DHT22;30625;52.206;21.030;2024-01-11T05:21:26;-4.40;99.90
44894;DHT22;30625;52.206;21.030;2024-01-11T05:23:53;-4.40;99.90
44894;DHT22;30625;52.206;21.030;2024-01-11T05:26:19;-4.40;99.90
44894;DHT22;30625;52.206;21.030;2024-01-11T05:28:44;-4.40;99.90
44894;DHT22;30625;52.206;21.030;2024-01-11T05:31:11;-4.40;99.90
44894;DHT22;30625;52.206;21.030;2024-01-11T05:33:37;-4.30;99.90
44894;DHT22;30625;52.206;21.030;2024-01-11T05:36:03;-4.30;99.90
44894;DHT22;30625;52.206;21.030;2024-01-11T05:38:28;-4.30;99.90
44894;DHT22;30625;52.206;21.030;2024-01-11T05:40:54;-4.30;99.90
44894;DHT22;30625;52.206;21.030;2024-01-11T05:43:21;-4.30;99.90
44894;DHT22;30625;52.206;21.030;2024-01-11T05:45:47;-4.20;99.90
44894;DHT22;30625;52.206;21.030;2024-01-11T05:48:15;-4.20;99.90
44894;DHT22;30625;52.206;21.030;2024-01-11T05:50:44;-4.20;99.90
44894;DHT22;30625;52.206;21.030;2024-01-11T05:53:11;-4.20;99.90
44894;DHT22;30625;52.206;21.030;2024-01-11T05:55:37;-4.20;99.90
44894;DHT22;30625;52.206;21.030;2024-01-11T05:58:03;-4.20;99.90
44894;DHT22;30625;52.206;21.030;2024-01-11T06:00:29;-4.10;99.90
44894;DHT22;30625;52.206;21.030;2024-01-11T06:02:54;-4.10;99.90
44894;DHT22;30625;52.206;21.030;2024-01-11T06:05:21;-4.10;99.90
44894;DHT22;30625;52.206;21.030;2024-01-11T06:07:48;-4.10;99.90
44894;DHT22;30625;52.206;21.030;2024-01-11T06:10:15;-4.10;99.90
44894;DHT22;30625;52.206;21.030;2024-01-11T06:12:40;-4.00;99.90
44894;DHT22;30625;52.206;21.030;2024-01-11T06:15:07;-4.10;99.90
44894;DHT22;30625;52.206;21.030;2024-01-11T06:17:33;-4.10;99.90
44894;DHT22;30625;52.206;21.030;2024-01-11T06:19:59;-4.00;99.90
44894;DHT22;30625;52.206;21.030;2024-01-11T06:22:24;-4.10;99.90
44894;DHT22;30625;52.206;21.030;2024-01-11T06:24:50;-4.00;99.90
44894;DHT22;30625;52.206;21.030;2024-01-11T06:27:15;-3.90;99.90
44894;DHT22;30625;52.206;21.030;2024-01-11T06:29:41;-4.00;99.90
44894;DHT22;30625;52.206;21.030;2024-01-11T06:32:06;-3.90;99.90
44894;DHT22;30625;52.206;21.030;2024-01-11T06:34:34;-4.00;99.90
44894;DHT22;30625;52.206;21.030;2024-01-11T06:37:01;-4.00;99.90
44894;DHT22;30625;52.206;21.030;2024-01-11T06:39:28;-4.00;99.90
44894;DHT22;30625;52.206;21.030;2024-01-11T06:41:53;-4.00;99.90
44894;DHT22;30625;52.206;21.030;2024-01-11T06:44:19;-4.00;99.90
44894;DHT22;30625;52.206;21.030;2024-01-11T06:46:45;-3.90;99.90
44894;DHT22;30625;52.206;21.030;2024-01-11T06:49:12;-3.90;99.90
44894;DHT22;30625;52.206;21.030;2024-01-11T06:51:37;-3.90;99.90
44894;DHT22;30625;52.206;21.030;2024-01-11T06:54:04;-3.90;99.90
44894;DHT22;30625;52.206;21.030;2024-01-11T06:56:31;-3.90;99.90
44894;DHT22;30625;52.206;21.030;2024-01-11T06:58:57;-4.00;99.90
44894;DHT22;30625;52.206;21.030;2024-01-11T07:01:22;-3.70;99.90
44894;DHT22;30625;52.206;21.030;2024-01-11T07:03:48;-3.90;99.90
44894;DHT22;30625;52.206;21.030;2024-01-11T07:06:15;-3.90;99.90
44894;DHT22;30625;52.206;21.030;2024-01-11T07:08:42;-3.80;99.90
44894;DHT22;30625;52.206;21.030;2024-01-11T07:11:10;-3.80;99.90
44894;DHT22;30625;52.206;21.030;2024-01-11T07:13:36;-3.80;99.90
44894;DHT22;30625;52.206;21.030;2024-01-11T07:16:02;-3.60;99.90
44894;DHT22;30625;52.206;21.030;2024-01-11T07:18:28;-3.80;99.90
44894;DHT22;30625;52.206;21.030;2024-01-11T07:20:58;-3.80;99.90
44894;DHT22;30625;52.206;21.030;2024-01-11T07:23:28;-3.80;99.90
44894;DHT22;30625;52.206;21.030;2024-01-11T07:25:53;-3.80;99.90
44894;DHT22;30625;52.206;21.030;2024-01-11T07:28:20;-3.70;99.90
44894;DHT22;30625;52.206;21.030;2024-01-11T07:30:51;-3.70;99.90
44894;DHT22;30625;52.206;21.030;2024-01-11T07:33:17;-3.70;99.90
44894;DHT22;30625;52.206;21.030;2024-01-11T07:35:43;-3.60;99.90
44894;DHT22;30625;52.206;21.030;2024-01-11T07:38:10;-3.60;99.90
44894;DHT22;30625;52.206;21.030;2024-01-11T07:40:36;-3.60;99.90
44894;DHT22;30625;52.206;21.030;2024-01-11T07:43:02;-3.50;99.90
44894;DHT22;30625;52.206;21.030;2024-01-11T07:45:29;-3.50;99.90
44894;DHT22;30625;52.206;21.030;2024-01-11T07:47:56;-3.50;99.90
44894;DHT22;30625;52.206;21.030;2024-01-11T07:50:23;-3.40;99.90
44894;DHT22;30625;52.206;21.030;2024-01-11T07:52:49;-3.40;99.90
44894;DHT22;30625;52.206;21.030;2024-01-11T07:55:16;-3.50;99.90
44894;DHT22;30625;52.206;21.030;2024-01-11T07:57:42;-3.40;99.90
44894;DHT22;30625;52.206;21.030;2024-01-11T08:00:08;-3.30;99.90
44894;DHT22;30625;52.206;21.030;2024-01-11T08:02:34;-3.40;99.90
44894;DHT22;30625;52.206;21.030;2024-01-11T08:05:00;-3.40;99.90
44894;DHT22;30625;52.206;21.030;2024-01-11T08:07:26;-3.30;99.90
44894;DHT22;30625;52.206;21.030;2024-01-11T08:09:52;-3.30;99.90
44894;DHT22;30625;52.206;21.030;2024-01-11T08:12:18;-3.30;99.90
44894;DHT22;30625;52.206;21.030;2024-01-11T08:14:46;-3.20;99.90
44894;DHT22;30625;52.206;21.030;2024-01-11T08:17:14;-3.20;99.90
44894;DHT22;30625;52.206;21.030;2024-01-11T08:19:41;-3.20;99.90
44894;DHT22;30625;52.206;21.030;2024-01-11T08:22:10;-3.20;99.90
44894;DHT22;30625;52.206;21.030;2024-01-11T08:24:36;-3.10;99.90
44894;DHT22;30625;52.206;21.030;2024-01-11T08:27:03;-3.10;99.90
44894;DHT22;30625;52.206;21.030;2024-01-11T08:29:30;-3.10;99.90
44894;DHT22;30625;52.206;21.030;2024-01-11T08:31:55;-3.10;99.90
44894;DHT22;30625;52.206;21.030;2024-01-11T08:34:21;-3.10;99.90
44894;DHT22;30625;52.206;21.030;2024-01-11T08:36:51;-3.00;99.90
44894;DHT22;30625;52.206;21.030;2024-01-11T08:39:18;-3.10;99.90
44894;DHT22;30625;52.206;21.030;2024-01-11T08:41:48;-3.10;99.90
44894;DHT22;30625;52.206;21.030;2024-01-11T08:44:14;-3.00;99.90
44894;DHT22;30625;52.206;21.030;2024-01-11T08:46:41;-3.00;99.90
44894;DHT22;30625;52.206;21.030;2024-01-11T08:49:06;-3.00;99.90
44894;DHT22;30625;52.206;21.030;2024-01-11T08:51:32;-3.00;99.90
44894;DHT22;30625;52.206;21.030;2024-01-11T08:53:57;-2.90;99.90
44894;DHT22;30625;52.206;21.030;2024-01-11T08:56:23;-2.90;99.90
44894;DHT22;30625;52.206;21.030;2024-01-11T08:58:49;-2.90;99.90
44894;DHT22;30625;52.206;21.030;2024-01-11T09:01:15;-2.90;99.90
44894;DHT22;30625;52.206;21.030;2024-01-11T09:03:47;-2.90;99.90
44894;DHT22;30625;52.206;21.030;2024-01-11T09:06:13;-2.90;99.90
44894;DHT22;30625;52.206;21.030;2024-01-11T09:08:39;-2.90;99.90
44894;DHT22;30625;52.206;21.030;2024-01-11T09:11:06;-2.80;99.90
44894;DHT22;30625;52.206;21.030;2024-01-11T09:13:33;-2.80;99.90
44894;DHT22;30625;52.206;21.030;2024-01-11T09:15:58;-2.80;99.90
44894;DHT22;30625;52.206;21.030;2024-01-11T09:18:24;-2.70;99.90
44894;DHT22;30625;52.206;21.030;2024-01-11T09:20:50;-2.80;99.90
44894;DHT22;30625;52.206;21.030;2024-01-11T09:23:16;-2.80;99.90
44894;DHT22;30625;52.206;21.030;2024-01-11T09:25:42;-2.70;99.90
44894;DHT22;30625;52.206;21.030;2024-01-11T09:28:07;-2.70;99.90
44894;DHT22;30625;52.206;21.030;2024-01-11T09:30:33;-2.60;99.90
44894;DHT22;30625;52.206;21.030;2024-01-11T09:32:59;-2.70;99.90
44894;DHT22;30625;52.206;21.030;2024-01-11T09:35:25;-2.60;99.90
44894;DHT22;30625;52.206;21.030;2024-01-11T09:37:51;-2.50;99.90
44894;DHT22;30625;52.206;21.030;2024-01-11T09:40:17;-2.40;99.90
44894;DHT22;30625;52.206;21.030;2024-01-11T09:42:42;-2.40;99.90
44894;DHT22;30625;52.206;21.030;2024-01-11T09:45:17;-2.30;99.90
44894;DHT22;30625;52.206;21.030;2024-01-11T09:47:43;-2.30;99.90
44894;DHT22;30625;52.206;21.030;2024-01-11T09:50:16;-2.20;99.90
44894;DHT22;30625;52.206;21.030;2024-01-11T09:52:45;-2.20;99.90
44894;DHT22;30625;52.206;21.030;2024-01-11T09:55:12;-2.20;99.90
44894;DHT22;30625;52.206;21.030;2024-01-11T09:57:41;-2.30;99.90
44894;DHT22;30625;52.206;21.030;2024-01-11T10:00:09;-2.20;99.90
44894;DHT22;30625;52.206;21.030;2024-01-11T10:02:36;-2.20;99.90
44894;DHT22;30625;52.206;21.030;2024-01-11T10:05:02;-2.20;99.90
44894;DHT22;30625;52.206;21.030;2024-01-11T10:07:29;-2.20;99.90
44894;DHT22;30625;52.206;21.030;2024-01-11T10:09:57;-2.20;99.90
44894;DHT22;30625;52.206;21.030;2024-01-11T10:12:23;-2.20;99.90
44894;DHT22;30625;52.206;21.030;2024-01-11T10:14:50;-2.20;99.90
44894;DHT22;30625;52.206;21.030;2024-01-11T10:17:17;-2.10;99.90
44894;DHT22;30625;52.206;21.030;2024-01-11T10:19:43;-2.10;99.90
44894;DHT22;30625;52.206;21.030;2024-01-11T10:22:10;-2.20;99.90
44894;DHT22;30625;52.206;21.030;2024-01-11T10:24:42;-2.10;99.90
44894;DHT22;30625;52.206;21.030;2024-01-11T10:27:11;-2.10;99.90
44894;DHT22;30625;52.206;21.030;2024-01-11T10:29:37;-2.10;99.90
44894;DHT22;30625;52.206;21.030;2024-01-11T10:32:05;-2.00;99.90
44894;DHT22;30625;52.206;21.030;2024-01-11T10:34:31;-1.90;99.90
44894;DHT22;30625;52.206;21.030;2024-01-11T10:36:56;-1.90;99.90
44894;DHT22;30625;52.206;21.030;2024-01-11T10:39:24;-1.90;99.90
44894;DHT22;30625;52.206;21.030;2024-01-11T10:41:56;-1.60;99.90
44894;DHT22;30625;52.206;21.030;2024-01-11T10:44:24;-1.90;99.90
44894;DHT22;30625;52.206;21.030;2024-01-11T10:46:53;-1.70;99.90
44894;DHT22;30625;52.206;21.030;2024-01-11T10:49:21;-1.80;99.90
44894;DHT22;30625;52.206;21.030;2024-01-11T10:51:49;-1.80;99.90
44894;DHT22;30625;52.206;21.030;2024-01-11T10:54:18;-1.80;99.90
44894;DHT22;30625;52.206;21.030;2024-01-11T10:56:46;-1.80;99.90
44894;DHT22;30625;52.206;21.030;2024-01-11T10:59:12;-1.70;99.90
44894;DHT22;30625;52.206;21.030;2024-01-11T11:01:39;-1.70;99.90
44894;DHT22;30625;52.206;21.030;2024-01-11T11:04:04;-1.60;99.90
44894;DHT22;30625;52.206;21.030;2024-01-11T11:06:30;-1.60;99.90
44894;DHT22;30625;52.206;21.030;2024-01-11T11:08:57;-1.70;99.90
44894;DHT22;30625;52.206;21.030;2024-01-11T11:11:23;-1.60;99.90
44894;DHT22;30625;52.206;21.030;2024-01-11T11:13:49;-1.60;99.90
44894;DHT22;30625;52.206;21.030;2024-01-11T11:16:15;-1.70;99.90
44894;DHT22;30625;52.206;21.030;2024-01-11T11:18:42;-1.60;99.90
44894;DHT22;30625;52.206;21.030;2024-01-11T11:21:11;-1.60;99.90
44894;DHT22;30625;52.206;21.030;2024-01-11T11:23:37;-1.60;99.90
44894;DHT22;30625;52.206;21.030;2024-01-11T11:26:05;-1.50;99.90
44894;DHT22;30625;52.206;21.030;2024-01-11T11:28:33;-1.50;99.90
44894;DHT22;30625;52.206;21.030;2024-01-11T11:31:00;-1.50;99.90
44894;DHT22;30625;52.206;21.030;2024-01-11T11:33:28;-1.50;99.90
44894;DHT22;30625;52.206;21.030;2024-01-11T11:35:54;-1.50;99.90
44894;DHT22;30625;52.206;21.030;2024-01-11T11:38:22;-1.40;99.90
44894;DHT22;30625;52.206;21.030;2024-01-11T11:40:48;-1.40;99.90
44894;DHT22;30625;52.206;21.030;2024-01-11T11:43:16;-1.50;99.90
44894;DHT22;30625;52.206;21.030;2024-01-11T11:45:45;-1.40;99.90
44894;DHT22;30625;52.206;21.030;2024-01-11T11:51:10;-1.40;99.90
44894;DHT22;30625;52.206;21.030;2024-01-11T11:53:37;-1.50;99.90
44894;DHT22;30625;52.206;21.030;2024-01-11T11:56:03;-1.40;99.90
44894;DHT22;30625;52.206;21.030;2024-01-11T11:58:31;-1.40;99.90
44894;DHT22;30625;52.206;21.030;2024-01-11T12:00:59;-1.50;99.90
44894;DHT22;30625;52.206;21.030;2024-01-11T12:03:28;-1.50;99.90
44894;DHT22;30625;52.206;21.030;2024-01-11T12:05:54;-1.40;99.90
44894;DHT22;30625;52.206;21.030;2024-01-11T12:08:22;-1.40;99.90
44894;DHT22;30625;52.206;21.030;2024-01-11T12:10:48;-1.40;99.90
44894;DHT22;30625;52.206;21.030;2024-01-11T12:13:14;-1.40;99.90
44894;DHT22;30625;52.206;21.030;2024-01-11T12:15:40;-1.40;99.90
44894;DHT22;30625;52.206;21.030;2024-01-11T12:18:06;-1.40;99.90
44894;DHT22;30625;52.206;21.030;2024-01-11T12:20:32;-1.30;99.90
44894;DHT22;30625;52.206;21.030;2024-01-11T12:22:59;-1.40;99.90
44894;DHT22;30625;52.206;21.030;2024-01-11T12:25:25;-1.40;99.90
44894;DHT22;30625;52.206;21.030;2024-01-11T12:27:54;-1.40;99.90
44894;DHT22;30625;52.206;21.030;2024-01-11T12:30:29;-1.30;99.90
44894;DHT22;30625;52.206;21.030;2024-01-11T12:32:58;-1.30;99.90
44894;DHT22;30625;52.206;21.030;2024-01-11T12:35:26;-1.30;99.90
44894;DHT22;30625;52.206;21.030;2024-01-11T12:37:53;-1.20;99.90
44894;DHT22;30625;52.206;21.030;2024-01-11T12:40:23;-1.10;99.90
44894;DHT22;30625;52.206;21.030;2024-01-11T12:42:49;-1.10;99.90
44894;DHT22;30625;52.206;21.030;2024-01-11T12:45:15;-1.10;99.90
44894;DHT22;30625;52.206;21.030;2024-01-11T12:47:41;-1.10;99.90
44894;DHT22;30625;52.206;21.030;2024-01-11T12:50:07;-1.00;99.90
44894;DHT22;30625;52.206;21.030;2024-01-11T12:52:35;-1.00;99.90
44894;DHT22;30625;52.206;21.030;2024-01-11T12:55:00;-1.00;99.90
44894;DHT22;30625;52.206;21.030;2024-01-11T12:57:26;-1.00;99.90
44894;DHT22;30625;52.206;21.030;2024-01-11T12:59:52;-1.00;99.90
44894;DHT22;30625;52.206;21.030;2024-01-11T13:02:18;-0.90;99.90
44894;DHT22;30625;52.206;21.030;2024-01-11T13:04:45;-0.90;99.90
44894;DHT22;30625;52.206;21.030;2024-01-11T13:07:12;-0.90;99.90
44894;DHT22;30625;52.206;21.030;2024-01-11T13:09:38;-0.90;99.90
44894;DHT22;30625;52.206;21.030;2024-01-11T13:12:06;-0.90;99.90
44894;DHT22;30625;52.206;21.030;2024-01-11T13:14:40;-0.90;99.90
44894;DHT22;30625;52.206;21.030;2024-01-11T13:17:07;-0.90;99.90
44894;DHT22;30625;52.206;21.030;2024-01-11T13:19:33;-0.90;99.90
44894;DHT22;30625;52.206;21.030;2024-01-11T13:21:58;-1.00;99.90
44894;DHT22;30625;52.206;21.030;2024-01-11T13:24:24;-0.90;99.90
44894;DHT22;30625;52.206;21.030;2024-01-11T13:26:50;-0.80;99.90
44894;DHT22;30625;52.206;21.030;2024-01-11T13:29:16;-0.90;99.90
44894;DHT22;30625;52.206;21.030;2024-01-11T13:31:42;-0.80;99.90
44894;DHT22;30625;52.206;21.030;2024-01-11T13:34:07;-0.80;99.90
44894;DHT22;30625;52.206;21.030;2024-01-11T13:36:33;-0.80;99.90
44894;DHT22;30625;52.206;21.030;2024-01-11T13:38:59;-0.70;99.90
44894;DHT22;30625;52.206;21.030;2024-01-11T13:41:27;-0.80;99.90
44894;DHT22;30625;52.206;21.030;2024-01-11T13:43:53;-0.80;99.90
44894;DHT22;30625;52.206;21.030;2024-01-11T13:46:21;-0.80;99.90
44894;DHT22;30625;52.206;21.030;2024-01-11T13:48:46;-0.80;99.90
44894;DHT22;30625;52.206;21.030;2024-01-11T13:51:14;-0.70;99.90
44894;DHT22;30625;52.206;21.030;2024-01-11T13:53:40;-0.70;99.90
44894;DHT22;30625;52.206;21.030;2024-01-11T13:56:06;-0.70;99.90
44894;DHT22;30625;52.206;21.030;2024-01-11T13:58:33;-0.70;99.90
44894;DHT22;30625;52.206;21.030;2024-01-11T14:00:59;-0.70;99.90
44894;DHT22;30625;52.206;21.030;2024-01-11T14:03:25;-0.60;99.90
44894;DHT22;30625;52.206;21.030;2024-01-11T14:05:50;-0.60;99.90
44894;DHT22;30625;52.206;21.030;2024-01-11T14:08:17;-0.40;99.90
44894;DHT22;30625;52.206;21.030;2024-01-11T14:10:44;-0.60;99.90
44894;DHT22;30625;52.206;21.030;2024-01-11T14:13:09;-0.60;99.90
44894;DHT22;30625;52.206;21.030;2024-01-11T14:15:35;-0.60;99.90
44894;DHT22;30625;52.206;21.030;2024-01-11T14:18:03;-0.60;99.90
44894;DHT22;30625;52.206;21.030;2024-01-11T14:20:33;-0.60;99.90
44894;DHT22;30625;52.206;21.030;2024-01-11T14:22:59;-0.50;99.90
44894;DHT22;30625;52.206;21.030;2024-01-11T14:25:25;-0.40;99.90
44894;DHT22;30625;52.206;21.030;2024-01-11T14:27:50;-0.40;99.90
44894;DHT22;30625;52.206;21.030;2024-01-11T14:30:16;-0.40;99.90
44894;DHT22;30625;52.206;21.030;2024-01-11T14:32:41;-0.30;99.90
44894;DHT22;30625;52.206;21.030;2024-01-11T14:35:08;-0.40;99.90
44894;DHT22;30625;52.206;21.030;2024-01-11T14:37:34;-0.40;99.90
44894;DHT22;30625;52.206;21.030;2024-01-11T14:40:00;-0.40;99.90
44894;DHT22;30625;52.206;21.030;2024-01-11T14:42:26;-0.40;99.90
44894;DHT22;30625;52.206;21.030;2024-01-11T14:44:52;-0.30;99.90
44894;DHT22;30625;52.206;21.030;2024-01-11T14:47:18;-0.30;99.90
44894;DHT22;30625;52.206;21.030;2024-01-11T14:49:43;-0.20;99.90
44894;DHT22;30625;52.206;21.030;2024-01-11T14:52:09;-0.20;99.90
44894;DHT22;30625;52.206;21.030;2024-01-11T14:54:36;-0.20;99.90
44894;DHT22;30625;52.206;21.030;2024-01-11T14:57:02;-0.20;99.90
44894;DHT22;30625;52.206;21.030;2024-01-11T14:59:27;-0.20;99.90
44894;DHT22;30625;52.206;21.030;2024-01-11T15:01:53;-0.10;99.90
44894;DHT22;30625;52.206;21.030;2024-01-11T15:04:18;-0.20;99.90
44894;DHT22;30625;52.206;21.030;2024-01-11T15:06:44;-0.20;99.90
44894;DHT22;30625;52.206;21.030;2024-01-11T15:09:10;-0.10;99.90
44894;DHT22;30625;52.206;21.030;2024-01-11T15:11:38;-0.20;99.90
44894;DHT22;30625;52.206;21.030;2024-01-11T15:14:05;-0.20;99.90
44894;DHT22;30625;52.206;21.030;2024-01-11T15:16:32;-0.10;99.90